Ana Sayfa
METAR-TAF:

METAR-TAF

Havaalanları :

Waterbury-Oxford Airport

Oxford, Connecticut, Amerika Birleşik Devletleri

Enlem: 41-29N, Boylam: 073-08W, yükseklik: 222 m

Güncel hava durumu gözlemi

Rapor saat 05:51 UTC de 1 saat ve 3 dakika önce yapıldı.
Rüzgar batıdan 3 kt
Sıcaklık -2°C
Nem 46%
Basınç 1008 hPa
Görüş mesafesi: 16.1 km
Açık gökyüzü

METAR: KOXC 290551Z AUTO 26003KT 10SM CLR M02/M12 A2978 RMK AO2 SLP107 T10221122 11006 21022 58003 FZRANO

Saat: 01:54 (06:54 UTC)


TAF: eksik

4.000'den fazla havaalanı için hava durumu gözlemleri ve tahminleri (METAR ve TAF raporları).

Kullanılabilir istasyonlar harita üzerinde sarı ve kırmızı noktalarla gösterilir.

İstasyonun adını görmek için fareyi noktanın üzerinde gezdirin.

Sonrasında hava gözlem ve tahminlerini görmek için tıklayın.

Haritayı değiştirmek için: yaklaştırmak için siyah artı işaretli yeşil düğmeye ve uzaklaştırmak için de eksi işaretli düğmeye hızla tıklayın; bitişik haritalar için yeşil okları kullanın.


METAR-TAF: